sensor_id;sensor_type;location;lat;lon;timestamp;pressure;altitude;pressure_sealevel;temperature;humidity
17855;BME280;9053;53.358;6.382;2023-08-08T00:01:22;101113.28;;;16.43;96.70
17855;BME280;9053;53.358;6.382;2023-08-08T00:03:55;101110.59;;;16.41;96.73
17855;BME280;9053;53.358;6.382;2023-08-08T00:06:25;101098.19;;;16.40;96.95
17855;BME280;9053;53.358;6.382;2023-08-08T00:08:55;101099.06;;;16.39;97.00
17855;BME280;9053;53.358;6.382;2023-08-08T00:11:25;101098.16;;;16.39;97.02
17855;BME280;9053;53.358;6.382;2023-08-08T00:13:55;101094.63;;;16.38;96.93
17855;BME280;9053;53.358;6.382;2023-08-08T00:16:25;101095.47;;;16.36;97.08
17855;BME280;9053;53.358;6.382;2023-08-08T00:18:58;101093.69;;;16.36;97.10
17855;BME280;9053;53.358;6.382;2023-08-08T00:21:28;101094.56;;;16.35;97.00
17855;BME280;9053;53.358;6.382;2023-08-08T00:23:57;101083.91;;;16.32;96.94
17855;BME280;9053;53.358;6.382;2023-08-08T00:26:28;101087.41;;;16.30;96.71
17855;BME280;9053;53.358;6.382;2023-08-08T00:28:58;101087.41;;;16.28;96.84
17855;BME280;9053;53.358;6.382;2023-08-08T00:31:28;101083.84;;;16.26;96.64
17855;BME280;9053;53.358;6.382;2023-08-08T00:34:00;101081.13;;;16.25;96.53
17855;BME280;9053;53.358;6.382;2023-08-08T00:36:31;101081.09;;;16.21;96.46
17855;BME280;9053;53.358;6.382;2023-08-08T00:39:01;101077.53;;;16.19;96.49
17855;BME280;9053;53.358;6.382;2023-08-08T00:41:31;101077.50;;;16.16;96.44
17855;BME280;9053;53.358;6.382;2023-08-08T00:44:01;101078.34;;;16.14;96.37
17855;BME280;9053;53.358;6.382;2023-08-08T00:46:31;101072.13;;;16.12;96.56
17855;BME280;9053;53.358;6.382;2023-08-08T00:49:04;101068.56;;;16.11;96.48
17855;BME280;9053;53.358;6.382;2023-08-08T00:51:35;101073.84;;;16.10;96.50
17855;BME280;9053;53.358;6.382;2023-08-08T00:54:05;101067.66;;;16.09;96.63
17855;BME280;9053;53.358;6.382;2023-08-08T00:56:36;101071.16;;;16.07;96.50
17855;BME280;9053;53.358;6.382;2023-08-08T00:59:07;101072.88;;;16.05;96.66
17855;BME280;9053;53.358;6.382;2023-08-08T01:01:38;101069.31;;;16.02;96.52
17855;BME280;9053;53.358;6.382;2023-08-08T01:04:11;101062.19;;;16.00;96.63
17855;BME280;9053;53.358;6.382;2023-08-08T01:06:51;101063.97;;;15.99;96.42
17855;BME280;9053;53.358;6.382;2023-08-08T01:09:28;101066.63;;;15.99;96.53
17855;BME280;9053;53.358;6.382;2023-08-08T01:12:01;101069.28;;;15.99;96.52
17855;BME280;9053;53.358;6.382;2023-08-08T01:14:35;101061.34;;;16.01;96.62
17855;BME280;9053;53.358;6.382;2023-08-08T01:17:06;101064.94;;;16.03;96.59
17855;BME280;9053;53.358;6.382;2023-08-08T01:19:39;101056.94;;;16.01;96.45
17855;BME280;9053;53.358;6.382;2023-08-08T01:22:14;101052.50;;;16.02;96.65
17855;BME280;9053;53.358;6.382;2023-08-08T01:24:48;101048.97;;;16.01;96.43
17855;BME280;9053;53.358;6.382;2023-08-08T01:27:19;101055.16;;;16.02;96.52
17855;BME280;9053;53.358;6.382;2023-08-08T01:29:49;101045.44;;;16.01;96.57
17855;BME280;9053;53.358;6.382;2023-08-08T01:32:19;101040.13;;;16.01;96.57
17855;BME280;9053;53.358;6.382;2023-08-08T01:34:49;101041.00;;;16.01;96.54
17855;BME280;9053;53.358;6.382;2023-08-08T01:37:24;101033.94;;;16.02;96.61
17855;BME280;9053;53.358;6.382;2023-08-08T01:40:00;101039.28;;;16.04;96.55
17855;BME280;9053;53.358;6.382;2023-08-08T01:42:32;101031.34;;;16.05;96.59
17855;BME280;9053;53.358;6.382;2023-08-08T01:45:02;101031.34;;;16.05;96.78
17855;BME280;9053;53.358;6.382;2023-08-08T01:47:32;101037.53;;;16.06;96.83
17855;BME280;9053;53.358;6.382;2023-08-08T01:50:03;101028.72;;;16.07;96.89
17855;BME280;9053;53.358;6.382;2023-08-08T01:52:33;101027.84;;;16.08;96.91
17855;BME280;9053;53.358;6.382;2023-08-08T01:55:06;101016.31;;;16.07;97.01
17855;BME280;9053;53.358;6.382;2023-08-08T01:57:37;101021.69;;;16.10;96.96
17855;BME280;9053;53.358;6.382;2023-08-08T02:00:08;101019.03;;;16.10;97.22
17855;BME280;9053;53.358;6.382;2023-08-08T02:02:39;101026.97;;;16.09;97.32
17855;BME280;9053;53.358;6.382;2023-08-08T02:05:09;101023.44;;;16.10;97.34
17855;BME280;9053;53.358;6.382;2023-08-08T02:07:39;101021.69;;;16.12;97.49
17855;BME280;9053;53.358;6.382;2023-08-08T02:10:12;101016.41;;;16.12;97.29
17855;BME280;9053;53.358;6.382;2023-08-08T02:12:42;101018.19;;;16.13;97.44
17855;BME280;9053;53.358;6.382;2023-08-08T02:15:12;101006.66;;;16.12;97.51
17855;BME280;9053;53.358;6.382;2023-08-08T02:17:42;101007.59;;;16.13;97.46
17855;BME280;9053;53.358;6.382;2023-08-08T02:20:12;101004.94;;;16.14;97.50
17855;BME280;9053;53.358;6.382;2023-08-08T02:22:42;100990.78;;;16.14;97.47
17855;BME280;9053;53.358;6.382;2023-08-08T02:25:14;100985.50;;;16.15;97.38
17855;BME280;9053;53.358;6.382;2023-08-08T02:27:44;100981.97;;;16.16;97.52
17855;BME280;9053;53.358;6.382;2023-08-08T02:30:14;100985.53;;;16.18;97.60
17855;BME280;9053;53.358;6.382;2023-08-08T02:32:44;100986.44;;;16.19;97.46
17855;BME280;9053;53.358;6.382;2023-08-08T02:35:14;100982.00;;;16.19;97.78
17855;BME280;9053;53.358;6.382;2023-08-08T02:37:44;100988.19;;;16.20;97.73
17855;BME280;9053;53.358;6.382;2023-08-08T02:40:16;100984.69;;;16.21;97.95
17855;BME280;9053;53.358;6.382;2023-08-08T02:42:46;100979.38;;;16.21;97.83
17855;BME280;9053;53.358;6.382;2023-08-08T02:45:16;100982.03;;;16.21;97.90
17855;BME280;9053;53.358;6.382;2023-08-08T02:47:46;100986.47;;;16.20;97.79
17855;BME280;9053;53.358;6.382;2023-08-08T02:50:16;100983.81;;;16.20;97.79
17855;BME280;9053;53.358;6.382;2023-08-08T02:52:46;100977.56;;;16.17;97.72
17855;BME280;9053;53.358;6.382;2023-08-08T02:55:18;100982.84;;;16.15;97.77
17855;BME280;9053;53.358;6.382;2023-08-08T02:57:48;100974.84;;;16.12;97.67
17855;BME280;9053;53.358;6.382;2023-08-08T03:00:18;100974.84;;;16.11;97.77
17855;BME280;9053;53.358;6.382;2023-08-08T03:02:48;100975.69;;;16.10;97.85
17855;BME280;9053;53.358;6.382;2023-08-08T03:05:18;100976.56;;;16.09;97.87
17855;BME280;9053;53.358;6.382;2023-08-08T03:07:48;100976.56;;;16.09;97.73
17855;BME280;9053;53.358;6.382;2023-08-08T03:10:21;100970.34;;;16.07;97.80
17855;BME280;9053;53.358;6.382;2023-08-08T03:12:51;100973.84;;;16.04;97.87
17855;BME280;9053;53.358;6.382;2023-08-08T03:15:23;100964.13;;;16.03;97.85
17855;BME280;9053;53.358;6.382;2023-08-08T03:17:53;100970.28;;;16.02;97.67
17855;BME280;9053;53.358;6.382;2023-08-08T03:20:23;100965.81;;;15.99;97.75
17855;BME280;9053;53.358;6.382;2023-08-08T03:22:53;100968.44;;;15.96;97.64
17855;BME280;9053;53.358;6.382;2023-08-08T03:25:26;100967.56;;;15.96;97.57
17855;BME280;9053;53.358;6.382;2023-08-08T03:27:56;100970.16;;;15.93;97.49
17855;BME280;9053;53.358;6.382;2023-08-08T03:30:26;100965.75;;;15.93;97.46
17855;BME280;9053;53.358;6.382;2023-08-08T03:32:56;100961.28;;;15.92;97.45
17855;BME280;9053;53.358;6.382;2023-08-08T03:35:26;100961.25;;;15.89;97.35
17855;BME280;9053;53.358;6.382;2023-08-08T03:37:56;100958.59;;;15.88;97.20
17855;BME280;9053;53.358;6.382;2023-08-08T03:40:28;100958.53;;;15.83;97.30
17855;BME280;9053;53.358;6.382;2023-08-08T03:42:58;100953.19;;;15.82;97.03
17855;BME280;9053;53.358;6.382;2023-08-08T03:45:28;100950.53;;;15.80;97.16
17855;BME280;9053;53.358;6.382;2023-08-08T03:47:59;100946.97;;;15.79;97.15
17855;BME280;9053;53.358;6.382;2023-08-08T03:50:29;100944.31;;;15.78;97.20
17855;BME280;9053;53.358;6.382;2023-08-08T03:52:59;100942.56;;;15.78;97.10
17855;BME280;9053;53.358;6.382;2023-08-08T03:55:32;100942.53;;;15.77;96.98
17855;BME280;9053;53.358;6.382;2023-08-08T03:58:02;100939.84;;;15.74;97.04
17855;BME280;9053;53.358;6.382;2023-08-08T04:00:32;100943.38;;;15.74;96.92
17855;BME280;9053;53.358;6.382;2023-08-08T04:03:02;100935.41;;;15.73;97.04
17855;BME280;9053;53.358;6.382;2023-08-08T04:05:32;100940.69;;;15.71;96.92
17855;BME280;9053;53.358;6.382;2023-08-08T04:08:02;100929.13;;;15.68;96.85
17855;BME280;9053;53.358;6.382;2023-08-08T04:10:34;100926.47;;;15.68;96.98
17855;BME280;9053;53.358;6.382;2023-08-08T04:13:06;100929.13;;;15.68;96.77
17855;BME280;9053;53.358;6.382;2023-08-08T04:15:36;100923.78;;;15.66;96.87
17855;BME280;9053;53.358;6.382;2023-08-08T04:18:06;100925.56;;;15.66;96.76
17855;BME280;9053;53.358;6.382;2023-08-08T04:20:36;100930.81;;;15.63;96.87
17855;BME280;9053;53.358;6.382;2023-08-08T04:23:06;100923.72;;;15.62;96.76
17855;BME280;9053;53.358;6.382;2023-08-08T04:25:38;100921.03;;;15.58;96.91
17855;BME280;9053;53.358;6.382;2023-08-08T04:28:08;100918.38;;;15.58;97.08
17855;BME280;9053;53.358;6.382;2023-08-08T04:30:38;100915.75;;;15.60;97.12
17855;BME280;9053;53.358;6.382;2023-08-08T04:33:08;100918.41;;;15.60;97.26
17855;BME280;9053;53.358;6.382;2023-08-08T04:35:38;100921.06;;;15.62;97.36
17855;BME280;9053;53.358;6.382;2023-08-08T04:38:08;100917.56;;;15.63;97.42
17855;BME280;9053;53.358;6.382;2023-08-08T04:40:43;100921.09;;;15.65;97.46
17855;BME280;9053;53.358;6.382;2023-08-08T04:43:13;100912.28;;;15.67;97.64
17855;BME280;9053;53.358;6.382;2023-08-08T04:45:43;100914.13;;;15.70;97.81
17855;BME280;9053;53.358;6.382;2023-08-08T04:48:13;100915.06;;;15.72;97.92
17855;BME280;9053;53.358;6.382;2023-08-08T04:50:46;100924.03;;;15.80;98.23
17855;BME280;9053;53.358;6.382;2023-08-08T04:53:16;100924.22;;;15.95;98.46
17855;BME280;9053;53.358;6.382;2023-08-08T04:55:48;100919.13;;;16.11;98.46
17855;BME280;9053;53.358;6.382;2023-08-08T04:58:18;100916.66;;;16.26;98.47
17855;BME280;9053;53.358;6.382;2023-08-08T05:00:48;100915.03;;;16.39;98.30
17855;BME280;9053;53.358;6.382;2023-08-08T05:03:18;100904.47;;;16.43;97.90
17855;BME280;9053;53.358;6.382;2023-08-08T05:05:48;100906.25;;;16.48;97.57
17855;BME280;9053;53.358;6.382;2023-08-08T05:08:18;100902.78;;;16.55;97.61
17855;BME280;9053;53.358;6.382;2023-08-08T05:10:50;100905.47;;;16.58;97.42
17855;BME280;9053;53.358;6.382;2023-08-08T05:13:20;100909.03;;;16.60;97.32
17855;BME280;9053;53.358;6.382;2023-08-08T05:15:50;100902.00;;;16.65;97.17
17855;BME280;9053;53.358;6.382;2023-08-08T05:18:20;100901.13;;;16.64;97.08
17855;BME280;9053;53.358;6.382;2023-08-08T05:20:50;100902.91;;;16.64;97.30
17855;BME280;9053;53.358;6.382;2023-08-08T05:23:20;100902.88;;;16.62;97.25
17855;BME280;9053;53.358;6.382;2023-08-08T05:25:52;100901.09;;;16.61;97.35
17855;BME280;9053;53.358;6.382;2023-08-08T05:28:22;100903.75;;;16.61;97.44
17855;BME280;9053;53.358;6.382;2023-08-08T05:30:52;100898.41;;;16.58;97.60
17855;BME280;9053;53.358;6.382;2023-08-08T05:33:23;100909.00;;;16.57;97.52
17855;BME280;9053;53.358;6.382;2023-08-08T05:35:53;100908.13;;;16.56;97.66
17855;BME280;9053;53.358;6.382;2023-08-08T05:38:23;100902.78;;;16.55;97.83
17855;BME280;9053;53.358;6.382;2023-08-08T05:40:55;100901.94;;;16.56;97.75
17855;BME280;9053;53.358;6.382;2023-08-08T05:43:25;100901.94;;;16.56;97.93
17855;BME280;9053;53.358;6.382;2023-08-08T05:45:56;100901.94;;;16.56;98.12
17855;BME280;9053;53.358;6.382;2023-08-08T05:48:26;100904.59;;;16.56;98.00
17855;BME280;9053;53.358;6.382;2023-08-08T05:50:56;100902.81;;;16.58;98.28
17855;BME280;9053;53.358;6.382;2023-08-08T05:53:27;100901.16;;;16.66;98.46
17855;BME280;9053;53.358;6.382;2023-08-08T05:55:59;100896.88;;;16.80;98.80
17855;BME280;9053;53.358;6.382;2023-08-08T05:58:29;100892.63;;;17.01;98.95
17855;BME280;9053;53.358;6.382;2023-08-08T06:00:59;100888.41;;;17.24;99.01
17855;BME280;9053;53.358;6.382;2023-08-08T06:03:33;100892.97;;;17.47;98.38
17855;BME280;9053;53.358;6.382;2023-08-08T06:06:05;100895.72;;;17.59;97.58
17855;BME280;9053;53.358;6.382;2023-08-08T06:08:35;100897.53;;;17.71;97.18
17855;BME280;9053;53.358;6.382;2023-08-08T06:11:07;100886.13;;;17.86;96.93
17855;BME280;9053;53.358;6.382;2023-08-08T06:13:38;100891.53;;;18.07;96.54
17855;BME280;9053;53.358;6.382;2023-08-08T06:16:08;100890.69;;;18.27;95.94
17855;BME280;9053;53.358;6.382;2023-08-08T06:18:38;100880.13;;;18.45;94.99
17855;BME280;9053;53.358;6.382;2023-08-08T06:21:08;100881.91;;;18.62;94.22
17855;BME280;9053;53.358;6.382;2023-08-08T06:23:38;100894.38;;;18.75;93.46
17855;BME280;9053;53.358;6.382;2023-08-08T06:26:10;100886.41;;;18.89;92.64
17855;BME280;9053;53.358;6.382;2023-08-08T06:28:41;100883.75;;;19.01;91.87
17855;BME280;9053;53.358;6.382;2023-08-08T06:31:11;100883.75;;;19.12;91.03
17855;BME280;9053;53.358;6.382;2023-08-08T06:33:41;100892.63;;;19.20;90.11
17855;BME280;9053;53.358;6.382;2023-08-08T06:36:11;100889.06;;;19.29;89.36
17855;BME280;9053;53.358;6.382;2023-08-08T06:38:41;100887.28;;;19.32;88.83
17855;BME280;9053;53.358;6.382;2023-08-08T06:41:14;100878.38;;;19.36;88.14
17855;BME280;9053;53.358;6.382;2023-08-08T06:43:44;100892.63;;;19.38;87.42
17855;BME280;9053;53.358;6.382;2023-08-08T06:46:14;100890.81;;;19.45;87.07
17855;BME280;9053;53.358;6.382;2023-08-08T06:48:44;100884.56;;;19.54;86.69
17855;BME280;9053;53.358;6.382;2023-08-08T06:51:15;100881.88;;;19.63;86.29
17855;BME280;9053;53.358;6.382;2023-08-08T06:53:45;100892.56;;;19.69;85.79
17855;BME280;9053;53.358;6.382;2023-08-08T06:56:18;100889.00;;;19.72;85.22
17855;BME280;9053;53.358;6.382;2023-08-08T06:58:47;100889.91;;;19.69;84.67
17855;BME280;9053;53.358;6.382;2023-08-08T07:01:18;100893.44;;;19.63;84.53
17855;BME280;9053;53.358;6.382;2023-08-08T07:03:48;100876.53;;;19.63;84.57
17855;BME280;9053;53.358;6.382;2023-08-08T07:06:18;100881.00;;;19.65;84.33
17855;BME280;9053;53.358;6.382;2023-08-08T07:08:48;100874.78;;;19.70;84.35
17855;BME280;9053;53.358;6.382;2023-08-08T07:11:20;100878.31;;;19.76;84.01
17855;BME280;9053;53.358;6.382;2023-08-08T07:13:51;100888.97;;;19.79;83.93
17855;BME280;9053;53.358;6.382;2023-08-08T07:16:23;100888.09;;;19.82;83.55
17855;BME280;9053;53.358;6.382;2023-08-08T07:18:53;100881.88;;;19.75;83.17
17855;BME280;9053;53.358;6.382;2023-08-08T07:21:23;100876.53;;;19.66;82.99
17855;BME280;9053;53.358;6.382;2023-08-08T07:23:53;100869.44;;;19.57;82.95
17855;BME280;9053;53.358;6.382;2023-08-08T07:26:27;100859.66;;;19.50;83.19
17855;BME280;9053;53.358;6.382;2023-08-08T07:28:57;100861.47;;;19.50;83.45
17855;BME280;9053;53.358;6.382;2023-08-08T07:31:27;100861.47;;;19.50;83.49
17855;BME280;9053;53.358;6.382;2023-08-08T07:33:56;100863.25;;;19.49;83.48
17855;BME280;9053;53.358;6.382;2023-08-08T07:36:28;100856.09;;;19.53;83.65
17855;BME280;9053;53.358;6.382;2023-08-08T07:38:58;100849.91;;;19.48;83.69
17855;BME280;9053;53.358;6.382;2023-08-08T07:41:30;100853.50;;;19.39;83.62
17855;BME280;9053;53.358;6.382;2023-08-08T07:44:01;100861.50;;;19.34;84.11
17855;BME280;9053;53.358;6.382;2023-08-08T07:46:32;100862.41;;;19.38;84.59
17855;BME280;9053;53.358;6.382;2023-08-08T07:49:02;100857.03;;;19.39;84.70
17855;BME280;9053;53.358;6.382;2023-08-08T07:51:33;100858.84;;;19.40;84.77
17855;BME280;9053;53.358;6.382;2023-08-08T07:54:03;100854.34;;;19.42;84.51
17855;BME280;9053;53.358;6.382;2023-08-08T07:56:38;100856.16;;;19.42;84.32
17855;BME280;9053;53.358;6.382;2023-08-08T07:59:09;100869.47;;;19.37;83.85
17855;BME280;9053;53.358;6.382;2023-08-08T08:01:39;100866.84;;;19.36;83.66
17855;BME280;9053;53.358;6.382;2023-08-08T08:04:09;100865.94;;;19.29;83.40
17855;BME280;9053;53.358;6.382;2023-08-08T08:06:39;100851.75;;;19.26;83.29
17855;BME280;9053;53.358;6.382;2023-08-08T08:09:10;100866.84;;;19.27;83.52
17855;BME280;9053;53.358;6.382;2023-08-08T08:11:43;100860.63;;;19.26;83.81
17855;BME280;9053;53.358;6.382;2023-08-08T08:14:13;100862.41;;;19.24;83.53
17855;BME280;9053;53.358;6.382;2023-08-08T08:16:44;100863.28;;;19.20;83.74
17855;BME280;9053;53.358;6.382;2023-08-08T08:19:15;100865.97;;;19.14;83.48
17855;BME280;9053;53.358;6.382;2023-08-08T08:21:45;100865.06;;;19.07;83.64
17855;BME280;9053;53.358;6.382;2023-08-08T08:24:15;100868.66;;;19.03;83.74
17855;BME280;9053;53.358;6.382;2023-08-08T08:26:47;100880.19;;;19.03;83.89
17855;BME280;9053;53.358;6.382;2023-08-08T08:29:17;100856.22;;;19.00;84.16
17855;BME280;9053;53.358;6.382;2023-08-08T08:31:47;100855.31;;;19.01;84.23
17855;BME280;9053;53.358;6.382;2023-08-08T08:34:17;100854.44;;;19.06;84.56
17855;BME280;9053;53.358;6.382;2023-08-08T08:36:47;100849.97;;;19.26;84.48
17855;BME280;9053;53.358;6.382;2023-08-08T08:39:17;100857.91;;;19.44;84.11
17855;BME280;9053;53.358;6.382;2023-08-08T08:41:54;100864.13;;;19.50;83.27
17855;BME280;9053;53.358;6.382;2023-08-08T08:44:30;100864.13;;;19.54;82.78
17855;BME280;9053;53.358;6.382;2023-08-08T08:47:04;100857.00;;;19.61;83.02
17855;BME280;9053;53.358;6.382;2023-08-08T08:49:38;100861.41;;;19.65;83.26
17855;BME280;9053;53.358;6.382;2023-08-08T08:52:09;100860.56;;;19.71;83.92
17855;BME280;9053;53.358;6.382;2023-08-08T08:54:39;100877.44;;;19.73;84.30
17855;BME280;9053;53.358;6.382;2023-08-08T08:57:12;100868.53;;;19.63;85.17
17855;BME280;9053;53.358;6.382;2023-08-08T08:59:42;100862.38;;;19.49;85.55
17855;BME280;9053;53.358;6.382;2023-08-08T09:02:12;100866.81;;;19.34;85.93
17855;BME280;9053;53.358;6.382;2023-08-08T09:04:43;100857.09;;;19.21;86.36
17855;BME280;9053;53.358;6.382;2023-08-08T09:07:14;100867.72;;;19.27;87.43
17855;BME280;9053;53.358;6.382;2023-08-08T09:09:46;100859.72;;;19.30;87.78
17855;BME280;9053;53.358;6.382;2023-08-08T09:12:18;100860.63;;;19.38;88.11
17855;BME280;9053;53.358;6.382;2023-08-08T09:14:55;100866.81;;;19.43;88.04
17855;BME280;9053;53.358;6.382;2023-08-08T09:17:26;100863.25;;;19.49;87.54
17855;BME280;9053;53.358;6.382;2023-08-08T09:20:13;100863.22;;;19.58;86.89
17855;BME280;9053;53.358;6.382;2023-08-08T09:22:43;100863.22;;;19.67;86.05
17855;BME280;9053;53.358;6.382;2023-08-08T09:25:13;100864.09;;;19.76;85.33
17855;BME280;9053;53.358;6.382;2023-08-08T09:27:45;100868.53;;;19.78;84.58
17855;BME280;9053;53.358;6.382;2023-08-08T09:30:17;100881.00;;;19.73;84.23
17855;BME280;9053;53.358;6.382;2023-08-08T09:32:47;100881.00;;;19.59;84.78
17855;BME280;9053;53.358;6.382;2023-08-08T09:35:17;100871.25;;;19.44;85.45
17855;BME280;9053;53.358;6.382;2023-08-08T09:37:47;100879.28;;;19.35;86.20
17855;BME280;9053;53.358;6.382;2023-08-08T09:40:18;100873.94;;;19.32;86.85
17855;BME280;9053;53.358;6.382;2023-08-08T09:42:51;100865.94;;;19.28;86.86
17855;BME280;9053;53.358;6.382;2023-08-08T09:45:21;100872.19;;;19.22;86.79
17855;BME280;9053;53.358;6.382;2023-08-08T09:47:51;100876.63;;;19.21;86.67
17855;BME280;9053;53.358;6.382;2023-08-08T09:50:22;100871.28;;;19.21;86.80
17855;BME280;9053;53.358;6.382;2023-08-08T09:52:53;100876.63;;;19.26;86.63
17855;BME280;9053;53.358;6.382;2023-08-08T09:55:24;100884.63;;;19.31;86.23
17855;BME280;9053;53.358;6.382;2023-08-08T09:57:57;100874.84;;;19.31;85.59
17855;BME280;9053;53.358;6.382;2023-08-08T10:00:27;100876.63;;;19.26;84.95
17855;BME280;9053;53.358;6.382;2023-08-08T10:02:58;100881.06;;;19.22;84.45
17855;BME280;9053;53.358;6.382;2023-08-08T10:05:29;100878.41;;;19.21;84.26
17855;BME280;9053;53.358;6.382;2023-08-08T10:07:59;100882.84;;;19.27;84.13
17855;BME280;9053;53.358;6.382;2023-08-08T10:10:31;100881.06;;;19.33;83.69
17855;BME280;9053;53.358;6.382;2023-08-08T10:13:05;100893.50;;;19.43;83.24
17855;BME280;9053;53.358;6.382;2023-08-08T10:15:36;100884.63;;;19.43;82.38
17855;BME280;9053;53.358;6.382;2023-08-08T10:18:07;100887.28;;;19.35;81.43
17855;BME280;9053;53.358;6.382;2023-08-08T10:20:38;100889.94;;;19.28;80.55
17855;BME280;9053;53.358;6.382;2023-08-08T10:23:08;100885.50;;;19.22;80.14
17855;BME280;9053;53.358;6.382;2023-08-08T10:25:43;100886.41;;;19.21;80.08
17855;BME280;9053;53.358;6.382;2023-08-08T10:28:19;100881.94;;;19.34;80.23
17855;BME280;9053;53.358;6.382;2023-08-08T10:30:56;100886.38;;;19.49;80.08
17855;BME280;9053;53.358;6.382;2023-08-08T10:33:27;100897.00;;;19.55;79.65
17855;BME280;9053;53.358;6.382;2023-08-08T10:35:59;100892.59;;;19.51;78.82
17855;BME280;9053;53.358;6.382;2023-08-08T10:38:40;100887.28;;;19.43;78.48
17855;BME280;9053;53.358;6.382;2023-08-08T10:41:11;100891.72;;;19.41;79.05
17855;BME280;9053;53.358;6.382;2023-08-08T10:43:50;100887.28;;;19.32;78.97
17855;BME280;9053;53.358;6.382;2023-08-08T10:46:26;100893.50;;;19.30;79.34
17855;BME280;9053;53.358;6.382;2023-08-08T10:48:59;100878.38;;;19.32;79.39
17855;BME280;9053;53.358;6.382;2023-08-08T10:51:34;100867.72;;;19.36;79.22
17855;BME280;9053;53.358;6.382;2023-08-08T10:54:05;100879.25;;;19.44;79.17
17855;BME280;9053;53.358;6.382;2023-08-08T10:56:38;100883.69;;;19.55;78.69
17855;BME280;9053;53.358;6.382;2023-08-08T10:59:18;100886.31;;;19.62;78.12
17855;BME280;9053;53.358;6.382;2023-08-08T11:01:51;100885.47;;;19.68;78.31
17855;BME280;9053;53.358;6.382;2023-08-08T11:04:24;100897.00;;;19.65;78.42
17855;BME280;9053;53.358;6.382;2023-08-08T11:06:56;100897.88;;;19.63;79.31
17855;BME280;9053;53.358;6.382;2023-08-08T11:09:26;100895.22;;;19.63;79.50
17855;BME280;9053;53.358;6.382;2023-08-08T11:11:57;100889.03;;;19.69;79.70
17855;BME280;9053;53.358;6.382;2023-08-08T11:14:31;100889.88;;;19.72;79.61
17855;BME280;9053;53.358;6.382;2023-08-08T11:17:02;100889.00;;;19.75;79.83
17855;BME280;9053;53.358;6.382;2023-08-08T11:19:38;100892.56;;;19.78;79.77
17855;BME280;9053;53.358;6.382;2023-08-08T11:22:09;100889.84;;;19.89;79.71
17855;BME280;9053;53.358;6.382;2023-08-08T11:24:40;100888.97;;;19.82;79.41
17855;BME280;9053;53.358;6.382;2023-08-08T11:27:10;100873.81;;;19.87;79.40
17855;BME280;9053;53.358;6.382;2023-08-08T11:30:05;100899.59;;;19.99;78.90
17855;BME280;9053;53.358;6.382;2023-08-08T11:32:36;100889.78;;;20.06;78.39
17855;BME280;9053;53.358;6.382;2023-08-08T11:35:07;100904.91;;;20.04;77.91
17855;BME280;9053;53.358;6.382;2023-08-08T11:37:38;100907.59;;;19.98;77.83
17855;BME280;9053;53.358;6.382;2023-08-08T11:40:09;100913.84;;;19.91;77.65
17855;BME280;9053;53.358;6.382;2023-08-08T11:42:39;100906.78;;;19.83;77.83
17855;BME280;9053;53.358;6.382;2023-08-08T11:45:14;100913.91;;;19.69;78.67
17855;BME280;9053;53.358;6.382;2023-08-08T11:47:48;100905.00;;;19.58;79.03
17855;BME280;9053;53.358;6.382;2023-08-08T11:50:20;100898.78;;;19.53;79.66
17855;BME280;9053;53.358;6.382;2023-08-08T11:52:51;100903.25;;;19.57;80.42
17855;BME280;9053;53.358;6.382;2023-08-08T11:55:27;100896.16;;;19.68;80.86
17855;BME280;9053;53.358;6.382;2023-08-08T11:57:57;100903.22;;;19.75;80.44
17855;BME280;9053;53.358;6.382;2023-08-08T12:00:31;100902.31;;;19.84;79.96
17855;BME280;9053;53.358;6.382;2023-08-08T12:03:02;100913.84;;;19.97;79.44
17855;BME280;9053;53.358;6.382;2023-08-08T12:05:36;100910.25;;;20.02;78.82
17855;BME280;9053;53.358;6.382;2023-08-08T12:08:07;100904.84;;;20.13;78.53
17855;BME280;9053;53.358;6.382;2023-08-08T12:10:37;100908.31;;;20.30;78.26
17855;BME280;9053;53.358;6.382;2023-08-08T12:13:07;100913.59;;;20.46;77.86
17855;BME280;9053;53.358;6.382;2023-08-08T12:15:42;100897.53;;;20.55;77.56
17855;BME280;9053;53.358;6.382;2023-08-08T12:18:16;100900.19;;;20.58;76.97
17855;BME280;9053;53.358;6.382;2023-08-08T12:20:46;100895.75;;;20.51;76.77
17855;BME280;9053;53.358;6.382;2023-08-08T12:23:16;100906.44;;;20.51;76.83
17855;BME280;9053;53.358;6.382;2023-08-08T12:25:46;100914.50;;;20.43;76.67
17855;BME280;9053;53.358;6.382;2023-08-08T12:28:22;100915.38;;;20.47;76.76
17855;BME280;9053;53.358;6.382;2023-08-08T12:30:55;100903.81;;;20.45;76.25
17855;BME280;9053;53.358;6.382;2023-08-08T12:33:25;100909.16;;;20.40;76.11
17855;BME280;9053;53.358;6.382;2023-08-08T12:35:55;100926.06;;;20.45;76.29
17855;BME280;9053;53.358;6.382;2023-08-08T12:38:25;100919.78;;;20.51;76.77
17855;BME280;9053;53.358;6.382;2023-08-08T12:40:55;100918.91;;;20.55;76.74
17855;BME280;9053;53.358;6.382;2023-08-08T12:43:25;100922.47;;;20.52;76.16
17855;BME280;9053;53.358;6.382;2023-08-08T12:45:58;100922.50;;;20.45;76.19
17855;BME280;9053;53.358;6.382;2023-08-08T12:48:28;100915.38;;;20.47;76.82
17855;BME280;9053;53.358;6.382;2023-08-08T12:50:58;100911.78;;;20.51;76.70
17855;BME280;9053;53.358;6.382;2023-08-08T12:53:28;100909.09;;;20.59;76.68
17855;BME280;9053;53.358;6.382;2023-08-08T12:55:58;100907.31;;;20.64;76.25
17855;BME280;9053;53.358;6.382;2023-08-08T12:58:28;100923.31;;;20.67;76.02
17855;BME280;9053;53.358;6.382;2023-08-08T13:01:01;100925.13;;;20.59;75.62
17855;BME280;9053;53.358;6.382;2023-08-08T13:03:30;100919.81;;;20.49;75.53
17855;BME280;9053;53.358;6.382;2023-08-08T13:06:01;100926.13;;;20.36;76.07
17855;BME280;9053;53.358;6.382;2023-08-08T13:08:31;100919.94;;;20.20;76.31
17855;BME280;9053;53.358;6.382;2023-08-08T13:11:02;100918.25;;;20.07;76.76
17855;BME280;9053;53.358;6.382;2023-08-08T13:13:32;100920.94;;;19.98;77.05
17855;BME280;9053;53.358;6.382;2023-08-08T13:16:04;100925.38;;;20.03;77.68
17855;BME280;9053;53.358;6.382;2023-08-08T13:18:34;100910.19;;;20.15;77.67
17855;BME280;9053;53.358;6.382;2023-08-08T13:21:04;100922.63;;;20.22;77.33